Bucholz Army Air Field
PKWA : now visible

Airfield :











YOU CAN JOIN US ON...

 
LOGIN :

Register | Disclaimer

   EN    FR    IT 

 









Legend :    VFR   Marginal VFR   IFR   Intensive IFR   Very Intensive IFR
Visi :
Ceiling :
>= 8 km
>= 3000ft
5 to 8 km
1000 to 3000 ft
1500m to 5 km
500 to 1000 ft
800 to 1500m
200 to 500 ft
< 800m
< 200 ft
Symbols :   Thunderstorms  Fog  Heavy snow  Heavy precipitations  Wind > 20 kt






- Airport Elevation : 9 ft
- IATA code : KWA


PKWA - Bucholz Army Air Field

CURRENT METAR :
  • 051620Z AUTO 33003KT 10SM SCT033 SCT047 SCT055 26/24 A2973 RMK AO2 T02620242

EXPIRED METARs :
  • 051600Z AUTO 00000KT 10SM BKN033 BKN042 OVC100 26/24 A2973 RMK AO2 T02620240
  • 051540Z AUTO 35003KT 10SM SCT036 SCT049 BKN100 26/24 A2973 RMK AO2 T02630240
  • 051520Z AUTO 35005KT 10SM SCT049 26/24 A2973 RMK AO2 T02630239
  • 051500Z AUTO 35006KT 10SM SCT025 SCT049 BKN080 27/24 A2973 RMK AO2 T02650237
  • 051440Z AUTO 00000KT 10SM SCT027 SCT060 BKN085 27/24 A2974 RMK AO2 T02670236
  • 051420Z AUTO 00000KT 10SM SCT090 27/24 A2974 RMK AO2 T02680236
  • 051400Z AUTO 00000KT 10SM SCT026 27/24 A2975 RMK AO2 T02690236
  • 051340Z AUTO 00000KT 10SM SCT026 27/24 A2975 RMK AO2 T02710236

TAF PKWA
Valid from the 05 at 12:00 until the 06 at 12:00 UTC


051126Z 0512/0612 VRB05KT P6SM VCSH FEW025 SCT050



MET'MAP, your aeronautical weather chart ! - Copyright ORBIFLY December 2007 - Disclaimer

ORBIFLY MET'MAP TEAM :

Programming & Development : Alexandra Zaïnal
Concept & original design : Baudouin d'Aumeries
Assistance for programming : Marc-Olivier Méhu
Technical & hardware support : Manuel Goepfert

Contact : metmap@orbifly.com




SOURCES & CREDITS :

   NOAA       Earth
Advisory